Time;durP1;ratioP1;P1;durP2;ratioP2;P2;SDS_P1;SDS_P2;PMS_P1;PMS_P2;Temp;Humidity;BMP_temperature;BMP_pressure;BME280_temperature;BME280_humidity;BME280_pressure;Samples;Min_cycle;Max_cycle;Signal;HPM_P1;HPM_P2
2023/09/04 00:00:41;;;;;;;2.80;1.00;;;;;;;13.16;77.81;100540.76;110104;1273;100033;-56
2023/09/04 00:03:30;;;;;;;0.90;0.60;;;;;;;13.11;77.97;100540.79;110279;1276;22158;-55
2023/09/04 00:05:59;;;;;;;2.70;0.80;;;;;;;13.07;77.93;100547.45;110296;1273;22753;-55
2023/09/04 00:08:27;;;;;;;2.20;1.30;;;;;;;13.02;78.04;100553.29;110123;1272;98076;-55
2023/09/04 00:10:56;;;;;;;1.90;0.90;;;;;;;12.96;78.02;100558.93;110127;1275;22873;-55
2023/09/04 00:13:24;;;;;;;2.00;0.70;;;;;;;12.92;78.07;100560.36;110064;1273;99847;-55
2023/09/04 00:15:56;;;;;;;1.80;0.80;;;;;;;12.88;78.34;100567.16;110248;1273;22328;-55
2023/09/04 00:18:24;;;;;;;7.00;0.80;;;;;;;12.84;78.44;100572.25;110185;1272;99990;-55
2023/09/04 00:20:54;;;;;;;2.30;0.70;;;;;;;12.78;78.46;100572.98;110278;1276;22303;-55
2023/09/04 00:23:22;;;;;;;1.50;0.90;;;;;;;12.74;78.62;100570.91;110222;1275;22270;-55
2023/09/04 00:25:51;;;;;;;2.70;0.80;;;;;;;12.71;78.74;100564.71;110080;1273;98719;-55
2023/09/04 00:28:20;;;;;;;2.10;0.50;;;;;;;12.69;78.83;100561.48;110309;1271;22272;-55
2023/09/04 00:30:49;;;;;;;1.70;0.70;;;;;;;12.67;78.96;100565.95;110071;1272;100266;-55
2023/09/04 00:33:17;;;;;;;1.20;0.50;;;;;;;12.64;78.97;100569.23;110273;1277;22305;-55
2023/09/04 00:35:46;;;;;;;1.10;0.60;;;;;;;12.62;79.11;100574.05;110224;1274;22775;-55
2023/09/04 00:38:14;;;;;;;2.70;0.50;;;;;;;12.59;79.15;100584.09;110165;1260;99719;-55
2023/09/04 00:40:43;;;;;;;0.90;0.60;;;;;;;12.55;79.14;100591.25;110146;1272;22292;-55
2023/09/04 00:43:11;;;;;;;3.00;0.60;;;;;;;12.47;79.35;100597.54;110193;1276;100017;-55
2023/09/04 00:45:43;;;;;;;3.30;0.80;;;;;;;12.42;79.57;100602.48;110273;1272;22232;-55
2023/09/04 00:48:13;;;;;;;1.10;0.60;;;;;;;12.41;79.90;100595.49;110168;1272;99576;-55
2023/09/04 00:50:45;;;;;;;2.50;0.90;;;;;;;12.48;80.17;100586.15;110147;1275;22134;-55
2023/09/04 00:53:14;;;;;;;4.50;0.70;;;;;;;12.57;80.34;100578.58;110253;1272;22816;-55
2023/09/04 00:55:43;;;;;;;1.70;0.70;;;;;;;12.67;80.38;100577.67;110216;1272;99418;-55
2023/09/04 00:58:12;;;;;;;2.30;0.70;;;;;;;12.70;80.17;100576.81;110128;1273;22178;-55
2023/09/04 01:00:40;;;;;;;0.80;0.40;;;;;;;12.70;80.27;100568.98;110036;1273;100061;-55
2023/09/04 01:03:11;;;;;;;2.90;0.50;;;;;;;12.75;80.07;100559.83;110177;1274;22974;-55
2023/09/04 01:05:41;;;;;;;6.70;1.50;;;;;;;12.75;79.83;100561.25;110148;1273;22372;-55
2023/09/04 01:08:09;;;;;;;2.10;0.90;;;;;;;12.78;80.29;100565.86;110065;1274;99922;-55
2023/09/04 01:11:06;;;;;;;1.10;0.70;;;;;;;12.85;80.47;100559.98;110152;1274;22799;-55
2023/09/04 01:13:56;;;;;;;1.00;0.60;;;;;;;12.91;80.55;100549.02;110051;1275;99451;-55
2023/09/04 01:16:25;;;;;;;2.40;0.80;;;;;;;12.98;80.78;100553.45;110162;1276;22149;-55
2023/09/04 01:18:54;;;;;;;1.90;1.10;;;;;;;13.05;81.00;100554.90;110081;1275;99298;-55
2023/09/04 01:21:23;;;;;;;2.90;0.70;;;;;;;13.07;80.58;100564.41;110165;1275;22312;-55
2023/09/04 01:23:52;;;;;;;3.30;0.90;;;;;;;12.95;80.52;100566.49;110102;1276;23138;-55
2023/09/04 01:26:51;;;;;;;2.00;0.70;;;;;;;12.86;80.83;100561.52;110086;1274;100174;-55
2023/09/04 01:29:24;;;;;;;2.60;1.00;;;;;;;12.88;81.26;100562.10;110181;1273;22262;-55
2023/09/04 01:32:26;;;;;;;4.00;1.00;;;;;;;12.91;81.53;100571.23;110061;1273;100689;-55
2023/09/04 01:34:56;;;;;;;2.60;0.70;;;;;;;12.97;81.68;100582.67;110151;1273;22507;-55
2023/09/04 01:37:26;;;;;;;3.90;0.90;;;;;;;13.04;81.79;100583.59;110086;1275;99428;-55
2023/09/04 01:39:55;;;;;;;1.10;0.70;;;;;;;13.12;81.97;100585.84;110137;1273;22053;-55
2023/09/04 01:42:23;;;;;;;2.70;0.70;;;;;;;13.20;82.02;100590.90;110110;1280;99367;-55
2023/09/04 01:44:52;;;;;;;2.30;1.10;;;;;;;13.22;82.00;100592.23;110197;1273;22162;-55
2023/09/04 01:47:21;;;;;;;3.20;1.00;;;;;;;13.27;82.13;100592.41;110182;1273;22360;-55
2023/09/04 01:49:50;;;;;;;3.50;0.80;;;;;;;13.30;82.28;100595.77;110099;1274;99242;-55
2023/09/04 01:52:18;;;;;;;1.00;0.70;;;;;;;13.34;82.25;100595.23;110126;1273;23166;-55
2023/09/04 01:54:47;;;;;;;3.50;1.10;;;;;;;13.36;82.42;100587.46;110051;1275;99561;-55
2023/09/04 01:57:16;;;;;;;1.50;0.60;;;;;;;13.40;82.60;100587.45;110049;1274;22281;-55
2023/09/04 01:59:45;;;;;;;3.20;0.70;;;;;;;13.43;82.84;100590.82;110144;1273;22393;-55
2023/09/04 02:02:13;;;;;;;2.30;0.90;;;;;;;13.45;83.01;100590.88;110063;1273;99547;-55
2023/09/04 02:04:42;;;;;;;4.60;1.00;;;;;;;13.47;83.10;100601.32;110159;1275;22127;-55
2023/09/04 02:07:14;;;;;;;2.20;0.70;;;;;;;13.49;83.30;100609.08;110105;1273;101210;-55
2023/09/04 02:09:42;;;;;;;1.70;0.80;;;;;;;13.55;83.54;100614.20;110117;1273;22148;-55
2023/09/04 02:12:11;;;;;;;1.30;0.70;;;;;;;13.62;83.58;100615.14;110051;1275;99992;-55
2023/09/04 02:14:40;;;;;;;1.80;0.70;;;;;;;13.69;83.69;100613.77;110170;1273;22278;-55
2023/09/04 02:17:08;;;;;;;2.20;0.80;;;;;;;13.75;83.76;100615.77;110152;1273;22267;-55
2023/09/04 02:19:37;;;;;;;1.80;0.80;;;;;;;13.78;83.65;100614.77;110090;1272;98355;-55
2023/09/04 02:22:05;;;;;;;2.50;1.20;;;;;;;13.78;83.78;100620.36;110160;1273;22886;-55
2023/09/04 02:24:34;;;;;;;3.40;0.90;;;;;;;13.79;83.83;100619.98;110047;1276;99640;-55
2023/09/04 02:27:03;;;;;;;4.50;0.90;;;;;;;13.79;83.86;100622.77;110171;1273;22946;-55
2023/09/04 02:29:31;;;;;;;2.60;1.10;;;;;;;13.82;84.06;100616.86;110168;1274;22241;-55
2023/09/04 02:32:00;;;;;;;4.20;1.30;;;;;;;13.81;84.01;100609.34;110073;1273;99815;-55
2023/09/04 02:34:29;;;;;;;1.50;0.90;;;;;;;13.84;84.29;100607.11;110222;1273;22246;-55
2023/09/04 02:36:58;;;;;;;1.20;1.00;;;;;;;13.90;84.46;100611.02;110075;1273;99250;-55
2023/09/04 02:39:26;;;;;;;1.50;0.80;;;;;;;13.90;84.34;100611.57;110133;1273;22349;-55
2023/09/04 02:41:55;;;;;;;2.20;0.70;;;;;;;13.90;84.65;100615.92;110107;1274;23142;-55
2023/09/04 02:44:24;;;;;;;1.00;0.70;;;;;;;13.96;84.65;100602.20;110066;1273;99189;-55
2023/09/04 02:46:52;;;;;;;1.70;1.10;;;;;;;14.01;84.79;100598.42;110161;1275;22158;-55
2023/09/04 02:49:24;;;;;;;2.50;0.60;;;;;;;14.02;84.51;100600.86;110034;1274;100331;-55
2023/09/04 02:51:52;;;;;;;3.00;0.60;;;;;;;13.97;84.54;100599.48;110113;1272;23330;-55
2023/09/04 02:54:21;;;;;;;1.70;0.70;;;;;;;13.95;84.79;100599.60;110089;1273;99362;-55
2023/09/04 02:56:50;;;;;;;2.40;0.80;;;;;;;13.96;84.89;100594.63;110173;1274;22241;-55
2023/09/04 02:59:18;;;;;;;1.80;0.70;;;;;;;13.98;84.94;100584.06;110199;1272;22378;-55
2023/09/04 03:01:50;;;;;;;2.60;1.00;;;;;;;13.98;84.97;100582.11;110163;1273;99360;-55
2023/09/04 03:04:19;;;;;;;4.00;1.40;;;;;;;13.98;85.02;100583.85;110201;1273;22400;-55
2023/09/04 03:06:47;;;;;;;2.00;0.70;;;;;;;13.98;85.04;100579.15;110007;1272;99628;-55
2023/09/04 03:09:16;;;;;;;3.10;1.10;;;;;;;13.95;85.08;100579.64;110138;1272;22291;-55
2023/09/04 03:11:45;;;;;;;2.50;0.60;;;;;;;13.95;85.18;100583.65;110231;1274;22966;-55
2023/09/04 03:14:15;;;;;;;3.90;1.10;;;;;;;13.93;84.96;100585.52;110063;1274;99916;-55
2023/09/04 03:16:44;;;;;;;1.70;0.70;;;;;;;13.88;84.92;100583.33;110198;1272;22284;-55
2023/09/04 03:19:12;;;;;;;2.00;1.00;;;;;;;13.82;84.85;100572.73;110116;1272;99267;-55
2023/09/04 03:21:41;;;;;;;2.30;0.90;;;;;;;13.78;85.17;100574.67;110180;1272;22174;-55
2023/09/04 03:24:10;;;;;;;7.40;1.00;;;;;;;13.76;85.01;100581.95;110139;1272;99375;-55
2023/09/04 03:26:39;;;;;;;2.50;1.10;;;;;;;13.73;84.99;100585.40;110243;1272;22372;-55
2023/09/04 03:29:07;;;;;;;2.50;0.70;;;;;;;13.75;85.52;100581.85;110236;1272;23407;-55
2023/09/04 03:31:36;;;;;;;2.40;0.80;;;;;;;13.79;85.85;100580.57;110114;1272;99302;-55
2023/09/04 03:34:06;;;;;;;4.80;0.90;;;;;;;13.84;86.08;100581.23;110190;1272;22551;-55
2023/09/04 03:36:35;;;;;;;1.90;0.80;;;;;;;13.87;85.84;100585.81;110119;1276;100503;-54
2023/09/04 03:39:06;;;;;;;3.50;1.30;;;;;;;13.86;86.00;100585.30;110122;1257;22273;-54
2023/09/04 03:41:35;;;;;;;1.60;0.80;;;;;;;13.86;86.26;100581.83;110214;1272;22331;-56
2023/09/04 03:44:04;;;;;;;2.70;0.80;;;;;;;13.88;86.29;100582.45;110113;1272;99850;-55
2023/09/04 03:46:33;;;;;;;1.50;0.70;;;;;;;13.90;86.39;100583.04;110192;1272;22305;-55
2023/09/04 03:49:02;;;;;;;1.40;0.70;;;;;;;13.92;86.38;100584.70;110118;1272;99869;-55
2023/09/04 03:51:31;;;;;;;1.20;0.60;;;;;;;13.91;86.31;100585.78;110124;1272;22272;-55
2023/09/04 03:54:03;;;;;;;2.90;1.00;;;;;;;13.92;86.64;100582.41;110177;1273;22924;-55
2023/09/04 03:56:31;;;;;;;2.90;1.10;;;;;;;13.96;87.03;100574.71;110063;1264;99516;-55
2023/09/04 03:59:00;;;;;;;2.20;0.90;;;;;;;14.01;87.14;100572.67;110161;1269;22136;-55
2023/09/04 04:01:31;;;;;;;1.10;0.60;;;;;;;14.04;87.03;100581.15;110105;1272;99851;-55
2023/09/04 04:04:00;;;;;;;1.30;0.60;;;;;;;14.03;86.93;100581.89;110101;1267;22144;-55
2023/09/04 04:06:29;;;;;;;2.50;0.90;;;;;;;14.07;87.36;100582.56;110096;1272;99563;-55
2023/09/04 04:08:58;;;;;;;7.20;1.40;;;;;;;14.14;87.59;100581.56;110218;1272;23160;-55
2023/09/04 04:11:27;;;;;;;6.30;0.90;;;;;;;14.21;87.71;100587.88;110069;1275;22135;-55
2023/09/04 04:13:55;;;;;;;4.80;1.20;;;;;;;14.28;87.89;100592.27;110112;1272;99895;-55
2023/09/04 04:16:24;;;;;;;9.00;1.50;;;;;;;14.27;87.67;100601.04;110185;1272;22803;-55
2023/09/04 04:18:53;;;;;;;3.20;1.30;;;;;;;14.29;88.24;100606.90;110126;1267;99910;-55
2023/09/04 04:21:21;;;;;;;1.90;0.80;;;;;;;14.36;88.58;100610.60;110021;1272;22275;-56
2023/09/04 04:23:50;;;;;;;2.00;0.90;;;;;;;14.41;88.68;100614.01;110102;1274;22376;-55
2023/09/04 04:26:18;;;;;;;1.90;1.50;;;;;;;14.46;88.75;100615.69;110168;1272;99813;-56
2023/09/04 04:28:48;;;;;;;2.30;1.00;;;;;;;14.53;88.43;100619.74;110247;1272;23151;-56
2023/09/04 04:31:16;;;;;;;2.00;0.90;;;;;;;14.54;88.45;100625.48;110091;1273;99898;-55
2023/09/04 04:33:45;;;;;;;4.90;1.00;;;;;;;14.57;88.87;100627.65;110220;1273;22296;-55
2023/09/04 04:36:14;;;;;;;2.50;1.00;;;;;;;14.65;88.83;100623.39;110105;1271;99365;-55
2023/09/04 04:38:43;;;;;;;1.60;0.80;;;;;;;14.65;89.15;100628.48;110235;1272;23150;-55
2023/09/04 04:41:11;;;;;;;1.20;0.80;;;;;;;14.76;88.93;100626.36;110214;1271;22392;-56
2023/09/04 04:43:40;;;;;;;3.00;1.00;;;;;;;14.76;88.96;100640.38;110069;1273;100340;-56
2023/09/04 04:46:12;;;;;;;3.10;1.20;;;;;;;14.82;88.91;100640.39;110183;1263;22145;-56
2023/09/04 04:48:41;;;;;;;2.90;0.90;;;;;;;14.86;88.95;100645.14;110088;1264;100044;-56
2023/09/04 04:51:10;;;;;;;1.90;0.80;;;;;;;14.89;89.17;100640.76;110246;1272;22259;-56
2023/09/04 04:53:39;;;;;;;4.80;0.90;;;;;;;14.96;89.17;100643.21;110220;1272;22370;-55
2023/09/04 04:56:08;;;;;;;3.50;1.10;;;;;;;14.98;89.05;100649.75;110069;1273;99846;-55
2023/09/04 04:58:37;;;;;;;1.60;0.60;;;;;;;15.05;89.36;100648.38;110176;1272;23031;-55
2023/09/04 05:01:07;;;;;;;7.80;1.20;;;;;;;15.12;89.25;100651.88;110155;1272;99193;-54
2023/09/04 05:03:35;;;;;;;9.20;1.40;;;;;;;15.16;89.31;100642.88;110121;1274;22236;-55
2023/09/04 05:06:08;;;;;;;4.70;1.30;;;;;;;15.24;89.42;100639.83;110228;1274;22137;-55
2023/09/04 05:08:37;;;;;;;5.00;1.90;;;;;;;15.30;89.31;100639.15;110237;1256;22327;-55
2023/09/04 05:11:06;;;;;;;3.50;1.00;;;;;;;15.35;89.25;100637.84;110176;1272;22331;-55
2023/09/04 05:13:34;;;;;;;5.70;1.00;;;;;;;15.42;89.27;100638.02;110140;1272;99162;-55
2023/09/04 05:16:04;;;;;;;2.90;1.00;;;;;;;15.45;89.08;100641.70;110131;1273;22137;-55
2023/09/04 05:18:33;;;;;;;1.60;0.80;;;;;;;15.51;89.34;100642.15;110050;1272;99227;-55
2023/09/04 05:21:07;;;;;;;1.20;0.50;;;;;;;15.57;89.13;100638.63;110171;1272;22306;-55
2023/09/04 05:23:36;;;;;;;4.00;1.20;;;;;;;15.65;89.14;100645.25;110212;1271;22142;-55
2023/09/04 05:26:05;;;;;;;2.10;0.90;;;;;;;15.71;89.22;100646.88;110060;1272;99509;-55
2023/09/04 05:28:34;;;;;;;5.10;1.30;;;;;;;15.78;89.38;100651.73;110116;1267;22369;-55
2023/09/04 05:31:05;;;;;;;1.10;0.90;;;;;;;15.90;89.32;100653.55;110042;1273;98452;-55
2023/09/04 05:33:34;;;;;;;0.90;0.80;;;;;;;16.00;89.11;100650.37;110146;1272;22290;-55
2023/09/04 05:36:03;;;;;;;1.40;0.40;;;;;;;16.05;89.05;100650.11;110208;1272;22288;-55
2023/09/04 05:38:32;;;;;;;2.30;1.20;;;;;;;16.08;89.05;100658.02;110050;1269;99625;-55
2023/09/04 05:41:01;;;;;;;4.20;1.40;;;;;;;16.15;89.14;100662.70;110115;1273;22255;-56
2023/09/04 05:43:30;;;;;;;3.00;0.90;;;;;;;16.24;89.17;100663.77;110073;1273;99917;-55
2023/09/04 05:45:59;;;;;;;4.80;1.10;;;;;;;16.31;89.24;100662.52;110095;1272;22276;-56
2023/09/04 05:48:28;;;;;;;1.30;0.60;;;;;;;16.39;89.17;100664.94;110004;1275;99460;-57
2023/09/04 05:51:02;;;;;;;2.10;1.30;;;;;;;16.45;88.99;100668.29;110202;1272;22278;-56
2023/09/04 05:53:32;;;;;;;2.30;0.90;;;;;;;16.45;88.70;100672.83;110021;1272;22244;-56
2023/09/04 05:56:05;;;;;;;1.00;0.70;;;;;;;16.46;88.73;100670.33;110136;1272;100436;-56
2023/09/04 05:58:34;;;;;;;4.00;1.80;;;;;;;16.50;88.76;100680.41;110178;1272;22254;-56
2023/09/04 06:01:03;;;;;;;2.40;1.40;;;;;;;16.51;88.55;100683.70;110066;1272;101711;-56
2023/09/04 06:03:31;;;;;;;1.00;0.60;;;;;;;16.40;88.69;100688.77;110231;1272;23087;-56
2023/09/04 06:06:00;;;;;;;2.30;0.90;;;;;;;16.46;89.31;100687.17;110043;1272;264382;-56
2023/09/04 06:08:30;;;;;;;2.20;1.00;;;;;;;16.52;88.86;100690.54;110153;1272;99548;-57
2023/09/04 06:10:59;;;;;;;5.60;1.20;;;;;;;16.51;88.71;100691.48;110194;1272;22372;-56
2023/09/04 06:13:29;;;;;;;2.40;0.80;;;;;;;16.52;88.82;100693.36;110047;1272;100020;-59
2023/09/04 06:16:00;;;;;;;1.40;0.70;;;;;;;16.50;88.60;100695.20;110167;1272;22168;-51
2023/09/04 06:18:29;;;;;;;5.10;1.10;;;;;;;16.50;88.64;100701.73;110059;1272;99456;-55
2023/09/04 06:20:58;;;;;;;1.90;1.00;;;;;;;16.55;89.01;100703.04;110109;1264;22337;-57
2023/09/04 06:23:27;;;;;;;0.80;0.50;;;;;;;16.61;89.06;100699.48;110045;1272;23422;-57
2023/09/04 06:25:55;;;;;;;0.90;0.60;;;;;;;16.72;89.17;100700.10;110098;1272;99973;-54
2023/09/04 06:28:26;;;;;;;2.80;0.90;;;;;;;16.79;89.11;100698.84;110208;1272;24949;-53
2023/09/04 06:30:56;;;;;;;2.40;1.10;;;;;;;16.89;89.16;100700.59;110119;1272;99274;-57
2023/09/04 06:33:27;;;;;;;4.40;0.80;;;;;;;16.97;89.02;100700.45;110097;1272;22241;-57
2023/09/04 06:35:59;;;;;;;5.80;1.00;;;;;;;17.05;88.97;100698.95;110080;1272;25362;-56
2023/09/04 06:38:28;;;;;;;1.40;0.70;;;;;;;17.09;88.67;100701.88;110095;1272;99190;-58
2023/09/04 06:41:01;;;;;;;1.10;0.70;;;;;;;17.14;88.78;100705.61;110209;1272;22167;-59
2023/09/04 06:43:30;;;;;;;1.40;0.60;;;;;;;17.18;88.66;100710.45;109959;1272;99874;-59
2023/09/04 06:46:08;;;;;;;2.50;1.10;;;;;;;17.29;88.78;100705.61;110224;1272;22148;-57
2023/09/04 06:48:38;;;;;;;2.00;0.60;;;;;;;17.36;88.66;100702.05;110067;1273;99536;-57
2023/09/04 06:51:08;;;;;;;2.30;0.70;;;;;;;17.43;88.28;100703.68;110056;1272;22304;-57
2023/09/04 06:53:37;;;;;;;3.60;0.80;;;;;;;17.46;88.49;100701.58;110084;1272;22344;-59
2023/09/04 06:56:05;;;;;;;1.60;0.90;;;;;;;17.57;88.50;100699.87;110100;1272;99617;-52
2023/09/04 06:58:35;;;;;;;1.60;0.60;;;;;;;17.64;88.37;100699.96;110100;1274;22160;-59
2023/09/04 07:01:04;;;;;;;5.60;0.90;;;;;;;17.65;88.45;100696.91;110124;1259;99868;-56
2023/09/04 07:03:34;;;;;;;1.50;0.70;;;;;;;17.71;88.50;100697.81;110140;1273;22134;-56
2023/09/04 07:06:02;;;;;;;1.70;0.80;;;;;;;17.73;88.39;100694.55;110147;1273;22156;-56
2023/09/04 07:08:31;;;;;;;2.10;1.30;;;;;;;17.86;88.67;100687.02;110094;1273;99437;-56
2023/09/04 07:11:00;;;;;;;2.70;1.10;;;;;;;18.07;88.80;100684.47;110099;1273;22296;-57
2023/09/04 07:13:30;;;;;;;2.50;1.30;;;;;;;18.30;88.65;100685.83;110023;1273;99330;-58
2023/09/04 07:15:59;;;;;;;6.70;1.30;;;;;;;18.43;88.25;100684.78;110158;1273;23025;-56
2023/09/04 07:18:27;;;;;;;1.70;0.90;;;;;;;18.48;87.93;100682.85;110084;1273;99872;-56
2023/09/04 07:20:57;;;;;;;4.10;0.90;;;;;;;18.58;88.18;100675.59;110137;1273;22323;-56
2023/09/04 07:23:27;;;;;;;1.10;0.70;;;;;;;18.79;88.30;100677.19;110119;1273;22334;-56
2023/09/04 07:25:57;;;;;;;3.10;1.00;;;;;;;19.16;88.33;100677.40;110069;1273;99408;-56
2023/09/04 07:28:27;;;;;;;2.30;1.00;;;;;;;19.59;88.21;100679.74;110148;1273;22407;-56
2023/09/04 07:31:19;;;;;;;1.90;0.40;;;;;;;20.02;88.24;100679.19;110032;1273;99973;-56
2023/09/04 07:33:49;;;;;;;3.20;0.80;;;;;;;20.45;87.59;100683.84;110159;1273;22193;-56
2023/09/04 07:36:17;;;;;;;2.10;0.80;;;;;;;20.69;86.92;100684.73;110055;1273;100877;-56
2023/09/04 07:38:47;;;;;;;1.70;0.80;;;;;;;20.98;86.71;100685.98;110112;1274;22285;-57
2023/09/04 07:41:15;;;;;;;7.80;1.80;;;;;;;21.41;86.48;100681.13;110134;1273;22154;-56
2023/09/04 07:43:43;;;;;;;2.30;0.60;;;;;;;21.86;86.19;100680.05;110092;1273;99805;-57
2023/09/04 07:46:12;;;;;;;2.50;0.80;;;;;;;22.40;85.85;100679.26;110152;1273;22263;-57
2023/09/04 07:48:41;;;;;;;2.50;0.90;;;;;;;23.07;85.89;100679.37;110063;1273;99935;-57
2023/09/04 07:51:10;;;;;;;1.40;0.40;;;;;;;23.85;85.15;100679.80;110159;1274;22300;-57
2023/09/04 07:53:58;;;;;;;2.30;0.50;;;;;;;24.53;84.19;100677.89;110141;1273;22164;-57
2023/09/04 07:56:27;;;;;;;2.00;1.10;;;;;;;25.38;84.79;100674.66;110037;1273;102541;-57
2023/09/04 07:59:08;;;;;;;1.10;0.30;;;;;;;26.69;83.57;100670.30;110234;1272;22283;-58
2023/09/04 08:01:37;;;;;;;0.70;0.40;;;;;;;27.61;81.24;100669.05;110150;1271;99433;-57
2023/09/04 08:04:06;;;;;;;0.60;0.40;;;;;;;27.58;78.75;100673.32;110116;1276;22097;-58
2023/09/04 08:06:36;;;;;;;1.30;0.50;;;;;;;27.55;78.40;100671.83;110159;1271;100126;-58
2023/09/04 08:09:05;;;;;;;1.40;0.50;;;;;;;27.87;78.14;100666.52;110135;1274;22310;-58
2023/09/04 08:11:37;;;;;;;0.70;0.40;;;;;;;28.09;76.62;100665.84;110177;1272;22158;-56
2023/09/04 08:14:06;;;;;;;0.70;0.30;;;;;;;28.02;75.38;100666.86;110112;1271;99404;-58
2023/09/04 08:16:35;;;;;;;2.40;0.80;;;;;;;27.94;74.61;100666.90;110245;1272;22153;-59
2023/09/04 08:19:10;;;;;;;2.20;0.70;;;;;;;28.38;74.90;100663.09;110110;1272;99325;-58
2023/09/04 08:21:42;;;;;;;1.70;0.50;;;;;;;28.77;73.77;100662.17;110143;1269;22774;-58
2023/09/04 08:24:10;;;;;;;0.40;0.20;;;;;;;29.24;73.23;100661.87;110162;1271;99487;-56
2023/09/04 08:26:39;;;;;;;0.80;0.50;;;;;;;30.09;72.78;100661.80;110235;1272;22412;-56
2023/09/04 08:29:08;;;;;;;2.10;0.50;;;;;;;30.81;71.07;100658.98;110235;1272;22877;-56
2023/09/04 08:31:37;;;;;;;1.50;0.40;;;;;;;31.35;70.32;100663.36;110127;1271;99831;-58
2023/09/04 08:34:06;;;;;;;2.20;0.60;;;;;;;32.78;70.59;100656.67;110251;1272;22472;-57
2023/09/04 08:36:51;;;;;;;3.20;0.70;;;;;;;35.36;69.81;100654.70;110168;1271;99519;-58
2023/09/04 08:39:20;;;;;;;2.10;0.50;;;;;;;36.68;66.18;100656.92;110227;1272;23050;-60
2023/09/04 08:41:50;;;;;;;1.00;0.30;;;;;;;36.15;60.96;100651.95;110069;1274;22167;-59
2023/09/04 08:44:19;;;;;;;1.70;0.50;;;;;;;35.63;59.54;100648.35;110042;1272;99448;-59
2023/09/04 08:46:51;;;;;;;0.80;0.50;;;;;;;36.29;57.63;100651.39;110251;1271;22282;-57
2023/09/04 08:49:19;;;;;;;1.00;0.50;;;;;;;35.92;55.08;100650.91;110062;1264;99418;-57
2023/09/04 08:51:49;;;;;;;0.80;0.40;;;;;;;35.71;55.31;100652.31;110128;1272;22143;-58
2023/09/04 08:54:18;;;;;;;1.30;0.60;;;;;;;36.36;55.02;100654.96;110085;1272;99492;-57
2023/09/04 08:56:47;;;;;;;2.00;0.30;;;;;;;36.68;53.29;100659.00;110060;1272;23641;-57
2023/09/04 08:59:19;;;;;;;2.40;0.40;;;;;;;36.55;51.71;100661.83;110123;1272;22364;-57
2023/09/04 09:01:50;;;;;;;1.00;0.30;;;;;;;36.73;50.26;100663.12;110035;1272;99320;-57
2023/09/04 09:04:20;;;;;;;1.30;0.50;;;;;;;36.35;48.97;100665.50;110254;1271;23044;-57
2023/09/04 09:06:50;;;;;;;1.20;0.40;;;;;;;35.30;47.96;100663.66;110026;1276;99427;-56
2023/09/04 09:09:23;;;;;;;1.40;0.70;;;;;;;33.65;46.08;100670.20;110112;1272;22122;-56
2023/09/04 09:11:54;;;;;;;1.50;0.70;;;;;;;32.34;46.08;100668.59;110254;1271;22283;-57
2023/09/04 09:14:28;;;;;;;1.20;0.60;;;;;;;31.65;46.14;100669.82;110104;1272;99320;-56
2023/09/04 09:17:10;;;;;;;3.00;1.00;;;;;;;31.36;45.74;100671.05;110258;1272;22402;-56
2023/09/04 09:19:40;;;;;;;0.90;0.40;;;;;;;30.50;45.38;100667.86;110172;1272;99830;-56
2023/09/04 09:22:17;;;;;;;2.20;0.70;;;;;;;30.02;45.23;100673.62;110241;1271;22296;-56
2023/09/04 09:24:54;;;;;;;2.00;0.70;;;;;;;29.74;45.39;100676.81;110101;1272;99502;-56
2023/09/04 09:27:24;;;;;;;2.40;0.90;;;;;;;30.09;45.91;100680.64;110246;1271;22140;-57
2023/09/04 09:29:58;;;;;;;3.20;0.70;;;;;;;31.19;45.74;100675.16;110168;1272;22385;-57
2023/09/04 09:32:29;;;;;;;1.40;0.60;;;;;;;31.43;45.17;100675.51;110145;1272;99209;-61
2023/09/04 09:35:00;;;;;;;1.60;0.80;;;;;;;30.85;44.70;100670.60;110152;1272;22358;-58
2023/09/04 09:37:33;;;;;;;0.90;0.40;;;;;;;31.04;45.25;100667.58;110067;1272;100426;-59
2023/09/04 09:40:05;;;;;;;2.50;0.70;;;;;;;32.89;45.74;100667.48;110213;1271;22370;-59
2023/09/04 09:42:35;;;;;;;1.30;0.60;;;;;;;35.57;45.64;100666.14;110012;1272;100018;-56
2023/09/04 09:45:06;;;;;;;4.60;1.00;;;;;;;38.12;43.89;100663.55;110209;1272;22424;-60
2023/09/04 09:47:42;;;;;;;1.30;0.50;;;;;;;37.70;41.94;100665.11;110082;1274;22142;-59
2023/09/04 09:50:15;;;;;;;1.80;0.50;;;;;;;38.53;40.75;100664.15;110031;1272;99972;-56
2023/09/04 09:53:00;;;;;;;3.40;0.50;;;;;;;39.67;39.50;100658.50;110231;1272;22178;-56
2023/09/04 09:55:31;;;;;;;0.80;0.50;;;;;;;42.10;39.59;100656.08;110093;1272;100117;-61
2023/09/04 09:58:01;;;;;;;1.40;0.60;;;;;;;43.76;37.63;100654.63;110141;1273;22831;-58
2023/09/04 10:00:30;;;;;;;1.60;0.80;;;;;;;43.48;36.67;100655.52;110062;1272;101600;-60
2023/09/04 10:03:00;;;;;;;2.20;0.60;;;;;;;43.89;35.58;100657.33;110116;1274;22274;-60
2023/09/04 10:05:30;;;;;;;1.90;0.70;;;;;;;43.87;34.13;100660.14;110119;1273;22974;-60
2023/09/04 10:08:01;;;;;;;0.80;0.50;;;;;;;42.58;33.69;100664.23;110089;1273;99302;-60
2023/09/04 10:10:36;;;;;;;0.90;0.60;;;;;;;42.65;32.73;100665.78;110146;1272;23107;-59
2023/09/04 10:13:15;;;;;;;2.10;0.80;;;;;;;41.82;32.37;100661.33;110091;1273;99778;-59
2023/09/04 10:15:50;;;;;;;2.30;0.40;;;;;;;41.07;31.59;100654.86;110150;1275;22327;-60
2023/09/04 10:18:33;;;;;;;1.80;1.20;;;;;;;39.92;30.51;100656.04;109980;1273;99987;-60
2023/09/04 10:21:04;;;;;;;0.40;0.30;;;;;;;40.02;30.64;100662.72;110117;1273;22327;-60
2023/09/04 10:23:42;;;;;;;3.30;0.70;;;;;;;41.67;30.91;100666.08;110135;1273;22277;-59
2023/09/04 10:26:24;;;;;;;7.50;1.50;;;;;;;44.31;30.97;100666.46;110069;1272;99935;-61
2023/09/04 10:29:03;;;;;;;1.70;0.50;;;;;;;45.22;29.28;100665.73;110150;1274;22286;-61
2023/09/04 10:31:35;;;;;;;1.10;0.70;;;;;;;43.74;28.46;100663.43;110009;1273;99278;-54
2023/09/04 10:34:09;;;;;;;4.80;1.10;;;;;;;42.93;27.49;100669.48;110156;1273;23811;-59
2023/09/04 10:36:38;;;;;;;;;;;;;;;41.55;27.48;100664.20;109991;1273;99796;-69
2023/09/04 10:39:08;;;;;;;2.90;0.70;;;;;;;40.44;27.15;100663.34;110133;1273;22307;-67
2023/09/04 10:41:37;;;;;;;2.20;0.40;;;;;;;38.79;27.00;100660.73;110111;1274;22351;-56
2023/09/04 10:44:08;;;;;;;6.00;0.90;;;;;;;38.13;27.58;100660.42;110129;1274;99873;-58
2023/09/04 10:46:40;;;;;;;1.40;0.50;;;;;;;37.59;27.70;100659.15;110129;1275;22332;-56
2023/09/04 10:49:12;;;;;;;5.50;0.60;;;;;;;36.92;28.02;100655.54;110099;1274;99288;-56
2023/09/04 10:51:47;;;;;;;7.40;1.30;;;;;;;36.06;28.02;100653.84;110173;1274;22322;-58
2023/09/04 10:54:18;;;;;;;3.90;0.80;;;;;;;35.23;28.21;100654.55;110071;1274;99321;-58
2023/09/04 10:57:02;;;;;;;1.20;0.30;;;;;;;34.63;28.30;100648.02;110168;1272;22290;-58
2023/09/04 10:59:53;;;;;;;1.70;0.40;;;;;;;33.65;28.86;100650.35;110237;1269;22295;-57
2023/09/04 11:02:33;;;;;;;3.20;0.30;;;;;;;34.13;30.27;100652.59;110141;1271;100602;-58
2023/09/04 11:05:06;;;;;;;1.50;0.40;;;;;;;37.98;30.61;100650.27;110236;1273;22368;-58
2023/09/04 11:07:36;;;;;;;2.30;0.60;;;;;;;41.26;30.14;100652.66;110021;1273;101193;-57
2023/09/04 11:10:13;;;;;;;2.30;0.50;;;;;;;43.71;29.75;100652.16;110175;1272;22074;-60
2023/09/04 11:12:58;;;;;;;8.70;1.50;;;;;;;45.60;28.30;100651.61;110093;1272;99340;-56
2023/09/04 11:15:32;;;;;;;3.90;0.50;;;;;;;45.53;27.82;100653.52;110228;1272;24892;-57
2023/09/04 11:18:01;;;;;;;1.60;0.80;;;;;;;45.23;27.07;100654.08;110202;1272;22228;-60
2023/09/04 11:20:45;;;;;;;1.50;0.80;;;;;;;45.13;26.24;100654.48;110128;1272;99631;-59
2023/09/04 11:23:16;;;;;;;2.50;1.20;;;;;;;45.80;26.27;100651.48;110074;1272;22406;-54
2023/09/04 11:25:46;;;;;;;1.20;1.10;;;;;;;47.07;25.79;100652.86;109991;1272;99788;-58
2023/09/04 11:28:17;;;;;;;1.10;1.00;;;;;;;47.89;24.74;100657.61;110140;1272;22289;-57
2023/09/04 11:30:46;;;;;;;1.30;1.20;;;;;;;46.52;24.01;100664.12;110162;1272;99605;-57
2023/09/04 11:33:15;;;;;;;5.70;1.20;;;;;;;44.87;22.98;100663.60;110239;1272;24304;-58